sensor_id;sensor_type;location;lat;lon;timestamp;P1;durP1;ratioP1;P2;durP2;ratioP2
52274;SDS011;38228;50.940;4.024;2023-10-08T00:02:23;10.90;;;3.05;;
52274;SDS011;38228;50.940;4.024;2023-10-08T00:04:50;9.77;;;3.55;;
52274;SDS011;38228;50.940;4.024;2023-10-08T00:07:23;7.28;;;2.92;;
52274;SDS011;38228;50.940;4.024;2023-10-08T00:09:52;6.85;;;3.17;;
52274;SDS011;38228;50.940;4.024;2023-10-08T00:12:19;6.90;;;2.60;;
52274;SDS011;38228;50.940;4.024;2023-10-08T00:14:46;9.85;;;3.30;;
52274;SDS011;38228;50.940;4.024;2023-10-08T00:17:15;6.60;;;2.47;;
52274;SDS011;38228;50.940;4.024;2023-10-08T00:19:44;6.72;;;2.67;;
52274;SDS011;38228;50.940;4.024;2023-10-08T00:22:10;10.45;;;3.55;;
52274;SDS011;38228;50.940;4.024;2023-10-08T00:24:38;6.93;;;2.97;;
52274;SDS011;38228;50.940;4.024;2023-10-08T00:27:09;8.30;;;3.25;;
52274;SDS011;38228;50.940;4.024;2023-10-08T00:29:39;9.77;;;2.92;;
52274;SDS011;38228;50.940;4.024;2023-10-08T00:32:07;8.00;;;2.90;;
52274;SDS011;38228;50.940;4.024;2023-10-08T00:34:41;7.90;;;2.80;;
52274;SDS011;38228;50.940;4.024;2023-10-08T00:37:08;8.43;;;2.80;;
52274;SDS011;38228;50.940;4.024;2023-10-08T00:39:39;5.72;;;3.15;;
52274;SDS011;38228;50.940;4.024;2023-10-08T00:42:06;8.32;;;2.97;;
52274;SDS011;38228;50.940;4.024;2023-10-08T00:44:33;7.35;;;2.90;;
52274;SDS011;38228;50.940;4.024;2023-10-08T00:47:06;9.93;;;3.22;;
52274;SDS011;38228;50.940;4.024;2023-10-08T00:49:32;7.18;;;3.05;;
52274;SDS011;38228;50.940;4.024;2023-10-08T00:52:11;8.75;;;3.45;;
52274;SDS011;38228;50.940;4.024;2023-10-08T00:54:38;7.72;;;2.75;;
52274;SDS011;38228;50.940;4.024;2023-10-08T00:57:19;7.90;;;3.00;;
52274;SDS011;38228;50.940;4.024;2023-10-08T00:59:47;8.00;;;2.55;;
52274;SDS011;38228;50.940;4.024;2023-10-08T01:02:21;9.45;;;3.42;;
52274;SDS011;38228;50.940;4.024;2023-10-08T01:04:54;11.30;;;3.38;;
52274;SDS011;38228;50.940;4.024;2023-10-08T01:07:20;12.13;;;3.13;;
52274;SDS011;38228;50.940;4.024;2023-10-08T01:09:48;9.25;;;3.30;;
52274;SDS011;38228;50.940;4.024;2023-10-08T01:12:23;9.57;;;3.22;;
52274;SDS011;38228;50.940;4.024;2023-10-08T01:14:54;9.10;;;2.95;;
52274;SDS011;38228;50.940;4.024;2023-10-08T01:17:29;8.57;;;3.40;;
52274;SDS011;38228;50.940;4.024;2023-10-08T01:19:57;11.55;;;3.30;;
52274;SDS011;38228;50.940;4.024;2023-10-08T01:22:44;8.05;;;2.92;;
52274;SDS011;38228;50.940;4.024;2023-10-08T01:25:09;8.82;;;2.75;;
52274;SDS011;38228;50.940;4.024;2023-10-08T01:27:35;9.00;;;3.40;;
52274;SDS011;38228;50.940;4.024;2023-10-08T01:30:02;8.10;;;3.13;;
52274;SDS011;38228;50.940;4.024;2023-10-08T01:32:46;8.32;;;2.97;;
52274;SDS011;38228;50.940;4.024;2023-10-08T01:35:11;8.75;;;2.92;;
52274;SDS011;38228;50.940;4.024;2023-10-08T01:37:51;9.27;;;3.50;;
52274;SDS011;38228;50.940;4.024;2023-10-08T01:40:21;8.50;;;3.30;;
52274;SDS011;38228;50.940;4.024;2023-10-08T01:42:50;9.27;;;3.53;;
52274;SDS011;38228;50.940;4.024;2023-10-08T01:45:16;9.13;;;2.88;;
52274;SDS011;38228;50.940;4.024;2023-10-08T01:47:45;6.43;;;2.88;;
52274;SDS011;38228;50.940;4.024;2023-10-08T01:50:15;7.70;;;3.20;;
52274;SDS011;38228;50.940;4.024;2023-10-08T01:52:47;7.95;;;3.30;;
52274;SDS011;38228;50.940;4.024;2023-10-08T01:55:13;7.10;;;3.40;;
52274;SDS011;38228;50.940;4.024;2023-10-08T01:57:44;6.60;;;3.13;;
52274;SDS011;38228;50.940;4.024;2023-10-08T02:00:10;8.45;;;3.33;;
52274;SDS011;38228;50.940;4.024;2023-10-08T02:02:36;6.93;;;3.10;;
52274;SDS011;38228;50.940;4.024;2023-10-08T02:05:02;8.32;;;3.38;;
52274;SDS011;38228;50.940;4.024;2023-10-08T02:07:29;10.18;;;3.42;;
52274;SDS011;38228;50.940;4.024;2023-10-08T02:09:55;11.02;;;3.30;;
52274;SDS011;38228;50.940;4.024;2023-10-08T02:12:22;7.63;;;3.38;;
52274;SDS011;38228;50.940;4.024;2023-10-08T02:14:48;8.70;;;3.20;;
52274;SDS011;38228;50.940;4.024;2023-10-08T02:17:14;7.18;;;3.38;;
52274;SDS011;38228;50.940;4.024;2023-10-08T02:19:40;7.75;;;3.00;;
52274;SDS011;38228;50.940;4.024;2023-10-08T02:22:06;7.63;;;3.60;;
52274;SDS011;38228;50.940;4.024;2023-10-08T02:24:34;9.07;;;3.40;;
52274;SDS011;38228;50.940;4.024;2023-10-08T02:27:01;7.40;;;3.53;;
52274;SDS011;38228;50.940;4.024;2023-10-08T02:29:29;6.68;;;3.22;;
52274;SDS011;38228;50.940;4.024;2023-10-08T02:31:57;8.93;;;3.20;;
52274;SDS011;38228;50.940;4.024;2023-10-08T02:34:24;8.25;;;3.40;;
52274;SDS011;38228;50.940;4.024;2023-10-08T02:36:50;8.98;;;3.70;;
52274;SDS011;38228;50.940;4.024;2023-10-08T02:39:16;9.70;;;3.17;;
52274;SDS011;38228;50.940;4.024;2023-10-08T02:41:46;8.35;;;3.47;;
52274;SDS011;38228;50.940;4.024;2023-10-08T02:44:13;10.15;;;3.38;;
52274;SDS011;38228;50.940;4.024;2023-10-08T02:46:43;6.97;;;3.28;;
52274;SDS011;38228;50.940;4.024;2023-10-08T02:49:12;7.20;;;2.95;;
52274;SDS011;38228;50.940;4.024;2023-10-08T02:51:45;7.90;;;3.25;;
52274;SDS011;38228;50.940;4.024;2023-10-08T02:54:12;6.47;;;3.10;;
52274;SDS011;38228;50.940;4.024;2023-10-08T02:56:47;12.27;;;3.70;;
52274;SDS011;38228;50.940;4.024;2023-10-08T02:59:20;6.80;;;3.15;;
52274;SDS011;38228;50.940;4.024;2023-10-08T03:01:48;9.18;;;3.50;;
52274;SDS011;38228;50.940;4.024;2023-10-08T03:04:21;8.15;;;3.30;;
52274;SDS011;38228;50.940;4.024;2023-10-08T03:06:50;8.52;;;3.50;;
52274;SDS011;38228;50.940;4.024;2023-10-08T03:09:20;11.10;;;3.58;;
52274;SDS011;38228;50.940;4.024;2023-10-08T03:11:49;9.23;;;3.47;;
52274;SDS011;38228;50.940;4.024;2023-10-08T03:14:16;11.48;;;3.70;;
52274;SDS011;38228;50.940;4.024;2023-10-08T03:16:52;8.10;;;3.72;;
52274;SDS011;38228;50.940;4.024;2023-10-08T03:19:19;9.20;;;3.90;;
52274;SDS011;38228;50.940;4.024;2023-10-08T03:21:50;11.70;;;3.28;;
52274;SDS011;38228;50.940;4.024;2023-10-08T03:24:19;10.70;;;3.65;;
52274;SDS011;38228;50.940;4.024;2023-10-08T03:27:00;9.32;;;3.70;;
52274;SDS011;38228;50.940;4.024;2023-10-08T03:29:37;9.95;;;3.67;;
52274;SDS011;38228;50.940;4.024;2023-10-08T03:32:10;8.77;;;3.33;;
52274;SDS011;38228;50.940;4.024;2023-10-08T03:34:44;8.68;;;4.00;;
52274;SDS011;38228;50.940;4.024;2023-10-08T03:37:11;8.20;;;3.78;;
52274;SDS011;38228;50.940;4.024;2023-10-08T03:39:46;10.43;;;3.53;;
52274;SDS011;38228;50.940;4.024;2023-10-08T03:42:26;8.35;;;3.88;;
52274;SDS011;38228;50.940;4.024;2023-10-08T03:44:59;8.80;;;3.38;;
52274;SDS011;38228;50.940;4.024;2023-10-08T03:47:35;7.72;;;3.63;;
52274;SDS011;38228;50.940;4.024;2023-10-08T03:50:04;9.10;;;3.65;;
52274;SDS011;38228;50.940;4.024;2023-10-08T03:52:31;7.00;;;3.78;;
52274;SDS011;38228;50.940;4.024;2023-10-08T03:54:56;12.20;;;3.53;;
52274;SDS011;38228;50.940;4.024;2023-10-08T03:57:41;11.90;;;4.10;;
52274;SDS011;38228;50.940;4.024;2023-10-08T04:00:09;11.38;;;3.67;;
52274;SDS011;38228;50.940;4.024;2023-10-08T04:02:57;6.75;;;3.55;;
52274;SDS011;38228;50.940;4.024;2023-10-08T04:05:26;9.27;;;3.63;;
52274;SDS011;38228;50.940;4.024;2023-10-08T04:08:09;5.32;;;3.10;;
52274;SDS011;38228;50.940;4.024;2023-10-08T04:11:01;10.07;;;3.47;;
52274;SDS011;38228;50.940;4.024;2023-10-08T04:13:34;9.00;;;3.42;;
52274;SDS011;38228;50.940;4.024;2023-10-08T04:16:04;11.20;;;3.75;;
52274;SDS011;38228;50.940;4.024;2023-10-08T04:18:31;8.07;;;3.30;;
52274;SDS011;38228;50.940;4.024;2023-10-08T04:20:57;8.00;;;3.53;;
52274;SDS011;38228;50.940;4.024;2023-10-08T04:23:29;8.25;;;3.50;;
52274;SDS011;38228;50.940;4.024;2023-10-08T04:25:56;9.68;;;3.78;;
52274;SDS011;38228;50.940;4.024;2023-10-08T04:28:22;6.05;;;3.25;;
52274;SDS011;38228;50.940;4.024;2023-10-08T04:30:52;11.10;;;3.95;;
52274;SDS011;38228;50.940;4.024;2023-10-08T04:33:18;7.07;;;3.90;;
52274;SDS011;38228;50.940;4.024;2023-10-08T04:35:44;7.78;;;3.33;;
52274;SDS011;38228;50.940;4.024;2023-10-08T04:38:14;8.98;;;3.67;;
52274;SDS011;38228;50.940;4.024;2023-10-08T04:40:43;7.85;;;4.20;;
52274;SDS011;38228;50.940;4.024;2023-10-08T04:43:21;7.15;;;3.75;;
52274;SDS011;38228;50.940;4.024;2023-10-08T04:45:53;8.38;;;3.88;;
52274;SDS011;38228;50.940;4.024;2023-10-08T04:48:22;9.38;;;3.70;;
52274;SDS011;38228;50.940;4.024;2023-10-08T04:50:52;6.90;;;3.95;;
52274;SDS011;38228;50.940;4.024;2023-10-08T04:53:28;9.45;;;3.53;;
52274;SDS011;38228;50.940;4.024;2023-10-08T04:56:02;10.60;;;3.75;;
52274;SDS011;38228;50.940;4.024;2023-10-08T04:58:38;9.95;;;4.28;;
52274;SDS011;38228;50.940;4.024;2023-10-08T05:01:07;8.45;;;4.00;;
52274;SDS011;38228;50.940;4.024;2023-10-08T05:03:49;8.20;;;4.03;;
52274;SDS011;38228;50.940;4.024;2023-10-08T05:06:30;8.90;;;3.85;;
52274;SDS011;38228;50.940;4.024;2023-10-08T05:11:43;7.88;;;4.55;;
52274;SDS011;38228;50.940;4.024;2023-10-08T05:14:30;7.82;;;4.22;;
52274;SDS011;38228;50.940;4.024;2023-10-08T05:17:05;10.55;;;4.20;;
52274;SDS011;38228;50.940;4.024;2023-10-08T05:19:38;12.43;;;4.45;;
52274;SDS011;38228;50.940;4.024;2023-10-08T05:22:05;11.20;;;4.22;;
52274;SDS011;38228;50.940;4.024;2023-10-08T05:24:44;10.45;;;4.07;;
52274;SDS011;38228;50.940;4.024;2023-10-08T05:27:31;9.05;;;4.07;;
52274;SDS011;38228;50.940;4.024;2023-10-08T05:30:13;15.90;;;4.60;;
52274;SDS011;38228;50.940;4.024;2023-10-08T05:32:56;8.85;;;4.03;;
52274;SDS011;38228;50.940;4.024;2023-10-08T05:35:49;11.25;;;4.45;;
52274;SDS011;38228;50.940;4.024;2023-10-08T05:38:20;9.15;;;4.50;;
52274;SDS011;38228;50.940;4.024;2023-10-08T05:40:59;12.57;;;4.13;;
52274;SDS011;38228;50.940;4.024;2023-10-08T05:43:26;10.77;;;4.28;;
52274;SDS011;38228;50.940;4.024;2023-10-08T05:51:28;9.00;;;4.22;;
52274;SDS011;38228;50.940;4.024;2023-10-08T05:54:25;9.20;;;4.10;;
52274;SDS011;38228;50.940;4.024;2023-10-08T05:57:00;11.60;;;4.85;;
52274;SDS011;38228;50.940;4.024;2023-10-08T05:59:47;7.88;;;4.30;;
52274;SDS011;38228;50.940;4.024;2023-10-08T06:02:23;10.55;;;4.53;;
52274;SDS011;38228;50.940;4.024;2023-10-08T06:05:13;10.18;;;4.05;;
52274;SDS011;38228;50.940;4.024;2023-10-08T06:10:17;12.73;;;4.53;;
52274;SDS011;38228;50.940;4.024;2023-10-08T06:13:01;12.10;;;4.85;;
52274;SDS011;38228;50.940;4.024;2023-10-08T06:15:35;8.82;;;4.25;;
52274;SDS011;38228;50.940;4.024;2023-10-08T06:18:12;11.80;;;4.35;;
52274;SDS011;38228;50.940;4.024;2023-10-08T06:20:43;11.00;;;4.28;;
52274;SDS011;38228;50.940;4.024;2023-10-08T06:23:12;9.52;;;4.40;;
52274;SDS011;38228;50.940;4.024;2023-10-08T06:25:43;10.05;;;4.32;;
52274;SDS011;38228;50.940;4.024;2023-10-08T06:28:16;9.02;;;4.35;;
52274;SDS011;38228;50.940;4.024;2023-10-08T06:30:48;10.23;;;4.35;;
52274;SDS011;38228;50.940;4.024;2023-10-08T06:33:15;9.55;;;4.28;;
52274;SDS011;38228;50.940;4.024;2023-10-08T06:35:44;10.27;;;4.45;;
52274;SDS011;38228;50.940;4.024;2023-10-08T06:38:10;11.07;;;4.82;;
52274;SDS011;38228;50.940;4.024;2023-10-08T06:40:36;14.93;;;5.00;;
52274;SDS011;38228;50.940;4.024;2023-10-08T06:43:03;12.05;;;4.70;;
52274;SDS011;38228;50.940;4.024;2023-10-08T06:45:44;9.55;;;4.25;;
52274;SDS011;38228;50.940;4.024;2023-10-08T06:48:13;9.23;;;4.88;;
52274;SDS011;38228;50.940;4.024;2023-10-08T06:50:46;9.30;;;4.53;;
52274;SDS011;38228;50.940;4.024;2023-10-08T06:53:12;9.52;;;4.35;;
52274;SDS011;38228;50.940;4.024;2023-10-08T06:55:46;9.75;;;4.65;;
52274;SDS011;38228;50.940;4.024;2023-10-08T06:58:13;11.45;;;5.05;;
52274;SDS011;38228;50.940;4.024;2023-10-08T07:00:40;9.68;;;5.18;;
52274;SDS011;38228;50.940;4.024;2023-10-08T07:03:16;10.52;;;4.97;;
52274;SDS011;38228;50.940;4.024;2023-10-08T07:05:46;8.30;;;4.55;;
52274;SDS011;38228;50.940;4.024;2023-10-08T07:08:23;12.43;;;4.38;;
52274;SDS011;38228;50.940;4.024;2023-10-08T07:10:50;7.78;;;4.32;;
52274;SDS011;38228;50.940;4.024;2023-10-08T07:13:17;9.63;;;4.65;;
52274;SDS011;38228;50.940;4.024;2023-10-08T07:15:47;6.80;;;4.03;;
52274;SDS011;38228;50.940;4.024;2023-10-08T07:18:14;10.55;;;3.90;;
52274;SDS011;38228;50.940;4.024;2023-10-08T07:20:44;9.27;;;3.90;;
52274;SDS011;38228;50.940;4.024;2023-10-08T07:23:11;10.65;;;4.70;;
52274;SDS011;38228;50.940;4.024;2023-10-08T07:25:56;11.52;;;4.50;;
52274;SDS011;38228;50.940;4.024;2023-10-08T07:28:49;10.73;;;4.43;;
52274;SDS011;38228;50.940;4.024;2023-10-08T07:31:22;10.00;;;4.38;;
52274;SDS011;38228;50.940;4.024;2023-10-08T07:33:49;10.05;;;4.60;;
52274;SDS011;38228;50.940;4.024;2023-10-08T07:36:40;9.10;;;4.28;;
52274;SDS011;38228;50.940;4.024;2023-10-08T07:39:07;10.55;;;4.70;;
52274;SDS011;38228;50.940;4.024;2023-10-08T07:41:45;9.57;;;4.82;;
52274;SDS011;38228;50.940;4.024;2023-10-08T07:44:12;13.18;;;4.55;;
52274;SDS011;38228;50.940;4.024;2023-10-08T07:46:38;10.27;;;4.80;;
52274;SDS011;38228;50.940;4.024;2023-10-08T07:49:03;11.75;;;4.72;;
52274;SDS011;38228;50.940;4.024;2023-10-08T07:51:30;9.80;;;4.80;;
52274;SDS011;38228;50.940;4.024;2023-10-08T07:53:56;10.93;;;4.60;;
52274;SDS011;38228;50.940;4.024;2023-10-08T07:56:22;10.23;;;5.05;;
52274;SDS011;38228;50.940;4.024;2023-10-08T07:58:51;8.93;;;4.75;;
52274;SDS011;38228;50.940;4.024;2023-10-08T08:01:20;15.48;;;5.22;;
52274;SDS011;38228;50.940;4.024;2023-10-08T08:03:49;10.85;;;4.75;;
52274;SDS011;38228;50.940;4.024;2023-10-08T08:06:16;11.20;;;5.13;;
52274;SDS011;38228;50.940;4.024;2023-10-08T08:08:42;12.15;;;5.50;;
52274;SDS011;38228;50.940;4.024;2023-10-08T08:11:09;11.10;;;5.22;;
52274;SDS011;38228;50.940;4.024;2023-10-08T08:13:42;7.55;;;4.28;;
52274;SDS011;38228;50.940;4.024;2023-10-08T08:16:10;9.40;;;4.70;;
52274;SDS011;38228;50.940;4.024;2023-10-08T08:21:11;13.10;;;4.70;;
52274;SDS011;38228;50.940;4.024;2023-10-08T08:23:43;11.90;;;5.00;;
52274;SDS011;38228;50.940;4.024;2023-10-08T08:26:14;10.35;;;4.30;;
52274;SDS011;38228;50.940;4.024;2023-10-08T08:28:54;11.07;;;4.57;;
52274;SDS011;38228;50.940;4.024;2023-10-08T08:31:22;11.18;;;5.20;;
52274;SDS011;38228;50.940;4.024;2023-10-08T08:33:49;12.68;;;5.10;;
52274;SDS011;38228;50.940;4.024;2023-10-08T08:36:20;10.52;;;4.63;;
52274;SDS011;38228;50.940;4.024;2023-10-08T08:38:47;12.25;;;4.35;;
52274;SDS011;38228;50.940;4.024;2023-10-08T08:41:13;12.15;;;4.70;;
52274;SDS011;38228;50.940;4.024;2023-10-08T08:43:43;10.05;;;4.57;;
52274;SDS011;38228;50.940;4.024;2023-10-08T08:46:12;7.95;;;4.90;;
52274;SDS011;38228;50.940;4.024;2023-10-08T08:48:41;14.70;;;5.90;;
52274;SDS011;38228;50.940;4.024;2023-10-08T08:51:11;12.73;;;4.95;;
52274;SDS011;38228;50.940;4.024;2023-10-08T08:53:38;10.93;;;5.10;;
52274;SDS011;38228;50.940;4.024;2023-10-08T08:56:06;9.82;;;5.07;;
52274;SDS011;38228;50.940;4.024;2023-10-08T08:58:34;15.30;;;4.82;;
52274;SDS011;38228;50.940;4.024;2023-10-08T09:01:01;12.68;;;5.18;;
52274;SDS011;38228;50.940;4.024;2023-10-08T09:03:30;11.52;;;4.82;;
52274;SDS011;38228;50.940;4.024;2023-10-08T09:05:56;12.15;;;5.60;;
52274;SDS011;38228;50.940;4.024;2023-10-08T09:08:23;12.15;;;5.25;;
52274;SDS011;38228;50.940;4.024;2023-10-08T09:10:54;10.43;;;5.57;;
52274;SDS011;38228;50.940;4.024;2023-10-08T09:13:26;12.13;;;5.68;;
52274;SDS011;38228;50.940;4.024;2023-10-08T09:16:12;14.50;;;5.43;;
52274;SDS011;38228;50.940;4.024;2023-10-08T09:18:44;16.98;;;5.88;;
52274;SDS011;38228;50.940;4.024;2023-10-08T09:21:15;15.10;;;5.80;;
52274;SDS011;38228;50.940;4.024;2023-10-08T09:23:51;11.70;;;5.72;;
52274;SDS011;38228;50.940;4.024;2023-10-08T09:26:22;12.10;;;5.63;;
52274;SDS011;38228;50.940;4.024;2023-10-08T09:28:49;13.48;;;5.35;;
52274;SDS011;38228;50.940;4.024;2023-10-08T09:31:16;14.32;;;5.20;;
52274;SDS011;38228;50.940;4.024;2023-10-08T09:33:43;8.95;;;5.32;;
52274;SDS011;38228;50.940;4.024;2023-10-08T09:36:18;11.68;;;5.40;;
52274;SDS011;38228;50.940;4.024;2023-10-08T09:38:45;12.13;;;5.20;;
52274;SDS011;38228;50.940;4.024;2023-10-08T09:41:14;10.98;;;5.80;;
52274;SDS011;38228;50.940;4.024;2023-10-08T09:43:41;15.68;;;5.85;;
52274;SDS011;38228;50.940;4.024;2023-10-08T09:48:44;16.25;;;6.05;;
52274;SDS011;38228;50.940;4.024;2023-10-08T09:51:19;11.68;;;5.68;;
52274;SDS011;38228;50.940;4.024;2023-10-08T09:56:35;11.18;;;5.80;;
52274;SDS011;38228;50.940;4.024;2023-10-08T09:59:01;12.90;;;5.65;;
52274;SDS011;38228;50.940;4.024;2023-10-08T10:01:28;15.00;;;5.93;;
52274;SDS011;38228;50.940;4.024;2023-10-08T10:03:57;12.57;;;6.13;;
52274;SDS011;38228;50.940;4.024;2023-10-08T10:06:26;16.73;;;6.25;;
52274;SDS011;38228;50.940;4.024;2023-10-08T10:08:55;14.57;;;6.53;;
52274;SDS011;38228;50.940;4.024;2023-10-08T10:11:28;12.65;;;5.85;;
52274;SDS011;38228;50.940;4.024;2023-10-08T10:13:58;14.82;;;5.70;;
52274;SDS011;38228;50.940;4.024;2023-10-08T10:16:25;15.73;;;6.30;;
52274;SDS011;38228;50.940;4.024;2023-10-08T10:18:59;18.08;;;6.35;;
52274;SDS011;38228;50.940;4.024;2023-10-08T10:23:58;14.45;;;6.63;;
52274;SDS011;38228;50.940;4.024;2023-10-08T10:26:25;13.90;;;6.60;;
52274;SDS011;38228;50.940;4.024;2023-10-08T10:34:13;15.35;;;5.95;;
52274;SDS011;38228;50.940;4.024;2023-10-08T10:36:41;17.98;;;7.55;;
52274;SDS011;38228;50.940;4.024;2023-10-08T10:39:11;19.05;;;6.38;;
52274;SDS011;38228;50.940;4.024;2023-10-08T10:42:03;18.08;;;7.18;;
52274;SDS011;38228;50.940;4.024;2023-10-08T10:44:31;17.83;;;8.30;;
52274;SDS011;38228;50.940;4.024;2023-10-08T10:47:01;16.55;;;7.18;;
52274;SDS011;38228;50.940;4.024;2023-10-08T10:49:43;17.73;;;6.30;;
52274;SDS011;38228;50.940;4.024;2023-10-08T10:52:20;17.02;;;7.20;;
52274;SDS011;38228;50.940;4.024;2023-10-08T10:55:18;20.92;;;6.50;;
52274;SDS011;38228;50.940;4.024;2023-10-08T10:57:51;14.32;;;7.03;;
52274;SDS011;38228;50.940;4.024;2023-10-08T11:00:37;18.08;;;6.85;;
52274;SDS011;38228;50.940;4.024;2023-10-08T11:03:06;14.13;;;6.07;;
52274;SDS011;38228;50.940;4.024;2023-10-08T11:05:41;13.75;;;6.97;;
52274;SDS011;38228;50.940;4.024;2023-10-08T11:08:13;15.65;;;6.05;;
52274;SDS011;38228;50.940;4.024;2023-10-08T11:10:41;18.00;;;6.35;;
52274;SDS011;38228;50.940;4.024;2023-10-08T11:13:21;14.57;;;6.43;;
52274;SDS011;38228;50.940;4.024;2023-10-08T11:15:53;12.88;;;6.18;;
52274;SDS011;38228;50.940;4.024;2023-10-08T11:18:22;17.63;;;6.72;;
52274;SDS011;38228;50.940;4.024;2023-10-08T11:20:49;15.95;;;6.20;;
52274;SDS011;38228;50.940;4.024;2023-10-08T11:23:35;15.80;;;5.85;;
52274;SDS011;38228;50.940;4.024;2023-10-08T11:26:02;14.02;;;6.25;;
52274;SDS011;38228;50.940;4.024;2023-10-08T11:28:37;15.57;;;6.50;;
52274;SDS011;38228;50.940;4.024;2023-10-08T11:31:07;14.13;;;6.38;;
52274;SDS011;38228;50.940;4.024;2023-10-08T11:33:39;14.57;;;5.80;;
52274;SDS011;38228;50.940;4.024;2023-10-08T11:36:07;15.10;;;6.35;;
52274;SDS011;38228;50.940;4.024;2023-10-08T11:38:43;15.88;;;5.65;;
52274;SDS011;38228;50.940;4.024;2023-10-08T11:41:16;15.00;;;6.30;;
52274;SDS011;38228;50.940;4.024;2023-10-08T11:43:49;13.45;;;5.93;;
52274;SDS011;38228;50.940;4.024;2023-10-08T11:46:22;16.48;;;6.97;;
52274;SDS011;38228;50.940;4.024;2023-10-08T11:49:06;13.52;;;6.28;;
52274;SDS011;38228;50.940;4.024;2023-10-08T11:51:43;14.57;;;5.35;;
52274;SDS011;38228;50.940;4.024;2023-10-08T11:54:09;18.73;;;6.25;;
52274;SDS011;38228;50.940;4.024;2023-10-08T11:56:39;14.48;;;6.03;;
52274;SDS011;38228;50.940;4.024;2023-10-08T11:59:06;15.95;;;8.43;;
52274;SDS011;38228;50.940;4.024;2023-10-08T12:01:35;14.20;;;5.57;;
52274;SDS011;38228;50.940;4.024;2023-10-08T12:04:02;18.33;;;6.00;;
52274;SDS011;38228;50.940;4.024;2023-10-08T12:06:28;14.75;;;5.85;;
52274;SDS011;38228;50.940;4.024;2023-10-08T12:08:58;10.02;;;5.10;;
52274;SDS011;38228;50.940;4.024;2023-10-08T12:11:24;14.73;;;6.05;;
52274;SDS011;38228;50.940;4.024;2023-10-08T12:13:57;11.18;;;5.28;;
52274;SDS011;38228;50.940;4.024;2023-10-08T12:16:24;13.80;;;6.00;;
52274;SDS011;38228;50.940;4.024;2023-10-08T12:18:54;11.32;;;5.15;;
52274;SDS011;38228;50.940;4.024;2023-10-08T12:21:28;14.93;;;5.60;;
52274;SDS011;38228;50.940;4.024;2023-10-08T12:23:57;12.10;;;4.78;;
52274;SDS011;38228;50.940;4.024;2023-10-08T12:26:23;14.75;;;6.75;;
52274;SDS011;38228;50.940;4.024;2023-10-08T12:28:50;13.13;;;5.57;;
52274;SDS011;38228;50.940;4.024;2023-10-08T12:31:18;16.88;;;5.47;;
52274;SDS011;38228;50.940;4.024;2023-10-08T12:33:47;12.98;;;5.30;;
52274;SDS011;38228;50.940;4.024;2023-10-08T12:36:16;15.00;;;5.85;;
52274;SDS011;38228;50.940;4.024;2023-10-08T12:38:42;13.73;;;6.20;;
52274;SDS011;38228;50.940;4.024;2023-10-08T12:41:09;13.57;;;5.50;;
52274;SDS011;38228;50.940;4.024;2023-10-08T12:43:39;12.98;;;5.38;;
52274;SDS011;38228;50.940;4.024;2023-10-08T12:46:11;18.77;;;6.97;;
52274;SDS011;38228;50.940;4.024;2023-10-08T12:48:44;14.13;;;5.93;;
52274;SDS011;38228;50.940;4.024;2023-10-08T12:51:16;11.98;;;5.65;;
52274;SDS011;38228;50.940;4.024;2023-10-08T12:53:42;13.95;;;6.22;;
52274;SDS011;38228;50.940;4.024;2023-10-08T12:56:15;16.70;;;6.53;;
52274;SDS011;38228;50.940;4.024;2023-10-08T12:58:42;16.08;;;6.57;;
52274;SDS011;38228;50.940;4.024;2023-10-08T13:01:13;16.15;;;6.68;;
52274;SDS011;38228;50.940;4.024;2023-10-08T13:03:43;15.18;;;6.03;;
52274;SDS011;38228;50.940;4.024;2023-10-08T13:06:13;13.63;;;6.20;;
52274;SDS011;38228;50.940;4.024;2023-10-08T13:11:12;14.98;;;5.78;;
52274;SDS011;38228;50.940;4.024;2023-10-08T13:13:38;14.88;;;5.95;;
52274;SDS011;38228;50.940;4.024;2023-10-08T13:16:04;16.60;;;6.38;;
52274;SDS011;38228;50.940;4.024;2023-10-08T13:18:35;11.10;;;5.07;;
52274;SDS011;38228;50.940;4.024;2023-10-08T13:21:08;13.95;;;6.18;;
52274;SDS011;38228;50.940;4.024;2023-10-08T13:23:36;11.60;;;5.70;;
52274;SDS011;38228;50.940;4.024;2023-10-08T13:26:02;16.95;;;6.20;;
52274;SDS011;38228;50.940;4.024;2023-10-08T13:28:34;13.23;;;5.78;;
52274;SDS011;38228;50.940;4.024;2023-10-08T13:31:01;15.27;;;6.00;;
52274;SDS011;38228;50.940;4.024;2023-10-08T13:33:37;13.73;;;5.45;;
52274;SDS011;38228;50.940;4.024;2023-10-08T13:36:04;14.50;;;5.78;;
52274;SDS011;38228;50.940;4.024;2023-10-08T13:38:33;14.45;;;6.05;;
52274;SDS011;38228;50.940;4.024;2023-10-08T13:41:00;12.45;;;5.47;;
52274;SDS011;38228;50.940;4.024;2023-10-08T13:43:31;13.13;;;5.63;;
52274;SDS011;38228;50.940;4.024;2023-10-08T13:48:38;13.75;;;5.65;;
52274;SDS011;38228;50.940;4.024;2023-10-08T13:51:06;13.02;;;6.50;;
52274;SDS011;38228;50.940;4.024;2023-10-08T13:53:38;16.42;;;7.30;;
52274;SDS011;38228;50.940;4.024;2023-10-08T13:56:10;11.80;;;5.72;;
52274;SDS011;38228;50.940;4.024;2023-10-08T13:58:37;14.43;;;5.90;;
52274;SDS011;38228;50.940;4.024;2023-10-08T14:01:11;13.63;;;5.75;;
52274;SDS011;38228;50.940;4.024;2023-10-08T14:03:49;12.30;;;5.05;;
52274;SDS011;38228;50.940;4.024;2023-10-08T14:06:18;14.68;;;5.55;;
52274;SDS011;38228;50.940;4.024;2023-10-08T14:08:45;11.63;;;5.38;;
52274;SDS011;38228;50.940;4.024;2023-10-08T14:11:19;11.15;;;5.45;;
52274;SDS011;38228;50.940;4.024;2023-10-08T14:13:49;12.48;;;5.50;;
52274;SDS011;38228;50.940;4.024;2023-10-08T14:16:16;11.15;;;5.05;;
52274;SDS011;38228;50.940;4.024;2023-10-08T14:18:43;12.32;;;5.00;;
52274;SDS011;38228;50.940;4.024;2023-10-08T14:21:16;14.15;;;5.32;;
52274;SDS011;38228;50.940;4.024;2023-10-08T14:23:43;10.57;;;4.95;;
52274;SDS011;38228;50.940;4.024;2023-10-08T14:26:09;15.02;;;5.18;;
52274;SDS011;38228;50.940;4.024;2023-10-08T14:28:36;9.02;;;4.68;;
52274;SDS011;38228;50.940;4.024;2023-10-08T14:31:08;10.82;;;4.90;;
52274;SDS011;38228;50.940;4.024;2023-10-08T14:33:43;9.90;;;4.65;;
52274;SDS011;38228;50.940;4.024;2023-10-08T14:36:29;11.05;;;4.95;;
52274;SDS011;38228;50.940;4.024;2023-10-08T14:39:14;9.45;;;4.43;;
52274;SDS011;38228;50.940;4.024;2023-10-08T14:44:42;12.90;;;4.47;;
52274;SDS011;38228;50.940;4.024;2023-10-08T14:47:08;10.63;;;5.03;;
52274;SDS011;38228;50.940;4.024;2023-10-08T14:49:34;9.15;;;4.40;;
52274;SDS011;38228;50.940;4.024;2023-10-08T14:52:00;6.95;;;4.03;;
52274;SDS011;38228;50.940;4.024;2023-10-08T14:54:29;11.80;;;4.85;;
52274;SDS011;38228;50.940;4.024;2023-10-08T14:56:55;8.52;;;4.28;;
52274;SDS011;38228;50.940;4.024;2023-10-08T14:59:22;9.82;;;4.10;;
52274;SDS011;38228;50.940;4.024;2023-10-08T15:01:48;15.15;;;8.88;;
52274;SDS011;38228;50.940;4.024;2023-10-08T15:04:15;12.05;;;7.70;;
52274;SDS011;38228;50.940;4.024;2023-10-08T15:06:43;10.65;;;4.20;;
52274;SDS011;38228;50.940;4.024;2023-10-08T15:09:09;12.05;;;4.45;;
52274;SDS011;38228;50.940;4.024;2023-10-08T15:11:43;9.35;;;4.57;;
52274;SDS011;38228;50.940;4.024;2023-10-08T15:14:11;12.32;;;4.65;;
52274;SDS011;38228;50.940;4.024;2023-10-08T15:16:37;8.88;;;4.47;;
52274;SDS011;38228;50.940;4.024;2023-10-08T15:19:04;9.05;;;4.03;;
52274;SDS011;38228;50.940;4.024;2023-10-08T15:21:30;8.65;;;4.60;;
52274;SDS011;38228;50.940;4.024;2023-10-08T15:24:00;12.43;;;5.28;;
52274;SDS011;38228;50.940;4.024;2023-10-08T15:26:35;9.98;;;4.57;;
52274;SDS011;38228;50.940;4.024;2023-10-08T15:29:01;11.48;;;4.47;;
52274;SDS011;38228;50.940;4.024;2023-10-08T15:31:28;15.20;;;4.80;;
52274;SDS011;38228;50.940;4.024;2023-10-08T15:33:54;9.93;;;4.15;;
52274;SDS011;38228;50.940;4.024;2023-10-08T15:36:19;10.18;;;4.68;;
52274;SDS011;38228;50.940;4.024;2023-10-08T15:38:45;11.98;;;4.68;;